Lovundjenta — LK7468 — position and weather

sailwx.info

Track history (hours):
 
Tides and Currents Weather Stations Pressure Air Temp Water Temp Dewpoint Dewpoint Depression Visibility Wind Speed Wind Dir Waves Ship Positions

Lovundjenta

Last reported at 2015-Apr-16 03:32 UTC. Time now 2015-Apr-19 09:30 UTC.
Position N 66°22' E 012°22'.

Type: Passenger vessel. MMSI: 257788900.

Date/timePositionNaut miles runAvg speedWind from/ knotsBaromVisibWave heightAir tempDewpointWater temp
2015-Apr-16 03:32N 66°22' E 012°22'0 0.0
2015-Apr-15 21:26N 66°22' E 012°22'3 0.4
2015-Apr-15 14:28N 66°22' E 012°30'3 0.3
2015-Apr-15 04:17N 66°22' E 012°22'0 0.0
2015-Apr-15 02:18N 66°22' E 012°22'0 0.0
2015-Apr-14 20:30N 66°22' E 012°22'0 0.0
2015-Apr-14 19:31N 66°22' E 012°22'0 0.0
2015-Apr-14 18:19N 66°22' E 012°22'0 0.0
2015-Apr-14 17:31N 66°22' E 012°22'0 0.0
2015-Apr-14 16:13N 66°22' E 012°22'0 0.0
2015-Apr-14 15:13N 66°22' E 012°22'0 0.0
2015-Apr-14 02:26N 66°22' E 012°22'0 0.0
2015-Apr-13 23:14N 66°22' E 012°22'0 0.0
2015-Apr-13 22:26N 66°22' E 012°22'0 0.0
2015-Apr-13 21:32N 66°22' E 012°22'0 0.0
2015-Apr-13 20:32N 66°22' E 012°22'0 0.0
2015-Apr-13 18:32N 66°22' E 012°22'0 0.0
2015-Apr-13 16:14N 66°22' E 012°22'1 0.7
2015-Apr-13 14:31N 66°21' E 012°24'1 0.1
2015-Apr-13 04:26N 66°22' E 012°23'0 0.3
2015-Apr-13 03:13N 66°22' E 012°22'0 0.0
2015-Apr-12 22:26N 66°22' E 012°22'0 0.0
2015-Apr-12 21:13N 66°22' E 012°22'0 0.0
2015-Apr-12 20:25N 66°22' E 012°22'0 0.0
2015-Apr-12 11:21N 66°22' E 012°22'0 0.0
2015-Apr-12 10:09N 66°22' E 012°22'0 0.0
2015-Apr-12 08:15N 66°22' E 012°22'0 0.0
2015-Apr-12 07:03N 66°22' E 012°22'0 0.0
2015-Apr-12 03:27N 66°22' E 012°22'0 0.0
2015-Apr-12 00:27N 66°22' E 012°22'0 0.0
2015-Apr-11 23:27N 66°22' E 012°22'0 0.0
2015-Apr-11 16:09N 66°22' E 012°22'0 0.0
2015-Apr-11 09:15N 66°22' E 012°22'0 0.0
2015-Apr-11 03:21N 66°22' E 012°22'0 0.0
2015-Apr-11 02:27N 66°22' E 012°22'0 0.0
2015-Apr-11 01:15N 66°22' E 012°22'0 0.0
2015-Apr-10 23:33N 66°22' E 012°22'0 0.0
2015-Apr-10 21:33N 66°22' E 012°22'0 0.0
2015-Apr-10 20:15N 66°22' E 012°22'0 0.0
2015-Apr-10 03:16N 66°22' E 012°22'0 0.0
2015-Apr-10 02:22N 66°22' E 012°22'0 0.0
2015-Apr-09 23:10N 66°22' E 012°22'0 0.0
2015-Apr-09 19:22N 66°22' E 012°22'0 0.0
2015-Apr-09 18:28N 66°22' E 012°22'0 0.0
2015-Apr-09 16:28N 66°22' E 012°22'0 0.0
2015-Apr-09 15:28N 66°22' E 012°22'0 0.0
2015-Apr-09 14:28N 66°22' E 012°22'0 0.0
2015-Apr-09 12:16N 66°22' E 012°22'0 0.0
2015-Apr-09 11:28N 66°22' E 012°22'0 0.0
2015-Apr-09 09:22N 66°22' E 012°22'0 0.0
2015-Apr-09 08:22N 66°22' E 012°22'0 0.0
2015-Apr-09 04:23N 66°22' E 012°22'0 0.2
2015-Apr-09 02:20N 66°22' E 012°23'1 0.2
2015-Apr-08 20:08N 66°22' E 012°26'2 1.7
2015-Apr-08 19:09N 66°22' E 012°22'0 0.0
2015-Apr-08 18:27N 66°22' E 012°22'0 0.0
2015-Apr-08 17:27N 66°22' E 012°22'0 0.0
2015-Apr-08 15:21N 66°22' E 012°22'0 0.0
2015-Apr-08 14:33N 66°22' E 012°22'0 0.0
2015-Apr-08 13:27N 66°22' E 012°22'0 0.0
2015-Apr-08 12:15N 66°22' E 012°22'0 0.0
2015-Apr-08 11:27N 66°22' E 012°22'0 0.0
2015-Apr-08 10:15N 66°22' E 012°22'0 0.0
2015-Apr-08 07:09N 66°22' E 012°22'0 0.0
2015-Apr-08 05:33N 66°22' E 012°22'0 0.0
2015-Apr-08 00:21N 66°22' E 012°22'0 0.0
2015-Apr-07 23:15N 66°22' E 012°22'0 0.0
2015-Apr-07 21:15N 66°22' E 012°22'0 0.0
2015-Apr-07 16:27N 66°22' E 012°22'2 0.6
2015-Apr-07 12:12N 66°22' E 012°28'2 2.7
2015-Apr-07 11:16N 66°22' E 012°22'0 0.0
2015-Apr-07 09:16N 66°22' E 012°22'0 0.0
2015-Apr-06 13:06N 66°22' E 012°22'0 0.1
2015-Apr-06 10:31N 66°22' E 012°22'0 0.0
2015-Apr-06 07:31N 66°22' E 012°22'  
Track history (hours):
 
Tides and Currents Weather Stations Pressure Air Temp Water Temp Dewpoint Dewpoint Depression Visibility Wind Speed Wind Dir Waves Ship Positions

Lovundjenta

Last reported at 2015-Apr-16 03:32 UTC. Time now 2015-Apr-19 09:30 UTC.
Position N 66°22' E 012°22'.

Type: Passenger vessel. MMSI: 257788900.

Date/timePositionNaut miles runAvg speedWind from/ knotsBaromVisibWave heightAir tempDewpointWater temp
2015-Apr-16 03:32N 66°22' E 012°22'0 0.0
2015-Apr-15 21:26N 66°22' E 012°22'3 0.4
2015-Apr-15 14:28N 66°22' E 012°30'3 0.3
2015-Apr-15 04:17N 66°22' E 012°22'0 0.0
2015-Apr-15 02:18N 66°22' E 012°22'0 0.0
2015-Apr-14 20:30N 66°22' E 012°22'0 0.0
2015-Apr-14 19:31N 66°22' E 012°22'0 0.0
2015-Apr-14 18:19N 66°22' E 012°22'0 0.0
2015-Apr-14 17:31N 66°22' E 012°22'0 0.0
2015-Apr-14 16:13N 66°22' E 012°22'0 0.0
2015-Apr-14 15:13N 66°22' E 012°22'0 0.0
2015-Apr-14 02:26N 66°22' E 012°22'0 0.0
2015-Apr-13 23:14N 66°22' E 012°22'0 0.0
2015-Apr-13 22:26N 66°22' E 012°22'0 0.0
2015-Apr-13 21:32N 66°22' E 012°22'0 0.0
2015-Apr-13 20:32N 66°22' E 012°22'0 0.0
2015-Apr-13 18:32N 66°22' E 012°22'0 0.0
2015-Apr-13 16:14N 66°22' E 012°22'1 0.7
2015-Apr-13 14:31N 66°21' E 012°24'1 0.1
2015-Apr-13 04:26N 66°22' E 012°23'0 0.3
2015-Apr-13 03:13N 66°22' E 012°22'0 0.0
2015-Apr-12 22:26N 66°22' E 012°22'0 0.0
2015-Apr-12 21:13N 66°22' E 012°22'0 0.0
2015-Apr-12 20:25N 66°22' E 012°22'0 0.0
2015-Apr-12 11:21N 66°22' E 012°22'0 0.0
2015-Apr-12 10:09N 66°22' E 012°22'0 0.0
2015-Apr-12 08:15N 66°22' E 012°22'0 0.0
2015-Apr-12 07:03N 66°22' E 012°22'0 0.0
2015-Apr-12 03:27N 66°22' E 012°22'0 0.0
2015-Apr-12 00:27N 66°22' E 012°22'0 0.0
2015-Apr-11 23:27N 66°22' E 012°22'0 0.0
2015-Apr-11 16:09N 66°22' E 012°22'0 0.0
2015-Apr-11 09:15N 66°22' E 012°22'0 0.0
2015-Apr-11 03:21N 66°22' E 012°22'0 0.0
2015-Apr-11 02:27N 66°22' E 012°22'0 0.0
2015-Apr-11 01:15N 66°22' E 012°22'0 0.0
2015-Apr-10 23:33N 66°22' E 012°22'0 0.0
2015-Apr-10 21:33N 66°22' E 012°22'0 0.0
2015-Apr-10 20:15N 66°22' E 012°22'0 0.0
2015-Apr-10 03:16N 66°22' E 012°22'0 0.0
2015-Apr-10 02:22N 66°22' E 012°22'0 0.0
2015-Apr-09 23:10N 66°22' E 012°22'0 0.0
2015-Apr-09 19:22N 66°22' E 012°22'0 0.0
2015-Apr-09 18:28N 66°22' E 012°22'0 0.0
2015-Apr-09 16:28N 66°22' E 012°22'0 0.0
2015-Apr-09 15:28N 66°22' E 012°22'0 0.0
2015-Apr-09 14:28N 66°22' E 012°22'0 0.0
2015-Apr-09 12:16N 66°22' E 012°22'0 0.0
2015-Apr-09 11:28N 66°22' E 012°22'0 0.0
2015-Apr-09 09:22N 66°22' E 012°22'0 0.0
2015-Apr-09 08:22N 66°22' E 012°22'0 0.0
2015-Apr-09 04:23N 66°22' E 012°22'0 0.2
2015-Apr-09 02:20N 66°22' E 012°23'1 0.2
2015-Apr-08 20:08N 66°22' E 012°26'2 1.7
2015-Apr-08 19:09N 66°22' E 012°22'0 0.0
2015-Apr-08 18:27N 66°22' E 012°22'0 0.0
2015-Apr-08 17:27N 66°22' E 012°22'0 0.0
2015-Apr-08 15:21N 66°22' E 012°22'0 0.0
2015-Apr-08 14:33N 66°22' E 012°22'0 0.0
2015-Apr-08 13:27N 66°22' E 012°22'0 0.0
2015-Apr-08 12:15N 66°22' E 012°22'0 0.0
2015-Apr-08 11:27N 66°22' E 012°22'0 0.0
2015-Apr-08 10:15N 66°22' E 012°22'0 0.0
2015-Apr-08 07:09N 66°22' E 012°22'0 0.0
2015-Apr-08 05:33N 66°22' E 012°22'0 0.0
2015-Apr-08 00:21N 66°22' E 012°22'0 0.0
2015-Apr-07 23:15N 66°22' E 012°22'0 0.0
2015-Apr-07 21:15N 66°22' E 012°22'0 0.0
2015-Apr-07 16:27N 66°22' E 012°22'2 0.6
2015-Apr-07 12:12N 66°22' E 012°28'2 2.7
2015-Apr-07 11:16N 66°22' E 012°22'0 0.0
2015-Apr-07 09:16N 66°22' E 012°22'0 0.0
2015-Apr-06 13:06N 66°22' E 012°22'0 0.1
2015-Apr-06 10:31N 66°22' E 012°22'0 0.0
2015-Apr-06 07:31N 66°22' E 012°22'  

Dump ship's entire track history